sensor_id;sensor_type;location;lat;lon;timestamp;temperature;humidity
22633;DHT22;11483;55.828;37.488;2023-05-29T00:00:07;11.60;99.90
22633;DHT22;11483;55.828;37.488;2023-05-29T00:02:39;11.50;99.90
22633;DHT22;11483;55.828;37.488;2023-05-29T00:05:13;11.50;99.90
22633;DHT22;11483;55.828;37.488;2023-05-29T00:07:40;11.50;99.90
22633;DHT22;11483;55.828;37.488;2023-05-29T00:10:08;11.50;99.90
22633;DHT22;11483;55.828;37.488;2023-05-29T00:13:02;11.50;99.90
22633;DHT22;11483;55.828;37.488;2023-05-29T00:15:28;11.50;99.90
22633;DHT22;11483;55.828;37.488;2023-05-29T00:17:55;11.50;99.90
22633;DHT22;11483;55.828;37.488;2023-05-29T00:20:42;11.50;99.90
22633;DHT22;11483;55.828;37.488;2023-05-29T00:23:08;11.60;99.90
22633;DHT22;11483;55.828;37.488;2023-05-29T00:25:35;11.50;99.90
22633;DHT22;11483;55.828;37.488;2023-05-29T00:28:01;11.50;99.90
22633;DHT22;11483;55.828;37.488;2023-05-29T00:30:27;11.50;99.90
22633;DHT22;11483;55.828;37.488;2023-05-29T00:33:14;11.60;99.90
22633;DHT22;11483;55.828;37.488;2023-05-29T00:35:39;11.60;99.90
22633;DHT22;11483;55.828;37.488;2023-05-29T00:38:05;11.60;99.90
22633;DHT22;11483;55.828;37.488;2023-05-29T00:40:31;11.60;99.90
22633;DHT22;11483;55.828;37.488;2023-05-29T00:42:57;11.60;99.90
22633;DHT22;11483;55.828;37.488;2023-05-29T00:45:23;11.50;99.90
22633;DHT22;11483;55.828;37.488;2023-05-29T00:47:49;11.40;99.90
22633;DHT22;11483;55.828;37.488;2023-05-29T00:50:15;11.40;99.90
22633;DHT22;11483;55.828;37.488;2023-05-29T00:52:42;11.40;99.90
22633;DHT22;11483;55.828;37.488;2023-05-29T00:55:09;11.40;99.90
22633;DHT22;11483;55.828;37.488;2023-05-29T00:57:45;11.30;99.90
22633;DHT22;11483;55.828;37.488;2023-05-29T01:00:32;11.30;99.90
22633;DHT22;11483;55.828;37.488;2023-05-29T01:02:59;11.30;99.90
22633;DHT22;11483;55.828;37.488;2023-05-29T01:05:29;11.30;99.90
22633;DHT22;11483;55.828;37.488;2023-05-29T01:08:21;11.30;99.90
22633;DHT22;11483;55.828;37.488;2023-05-29T01:10:47;11.30;99.90
22633;DHT22;11483;55.828;37.488;2023-05-29T01:13:23;11.40;99.90
22633;DHT22;11483;55.828;37.488;2023-05-29T01:16:27;11.40;99.90
22633;DHT22;11483;55.828;37.488;2023-05-29T01:25:08;11.40;99.90
22633;DHT22;11483;55.828;37.488;2023-05-29T01:27:37;11.50;99.90
22633;DHT22;11483;55.828;37.488;2023-05-29T01:30:06;11.50;99.90
22633;DHT22;11483;55.828;37.488;2023-05-29T01:32:34;11.50;99.90
22633;DHT22;11483;55.828;37.488;2023-05-29T01:35:25;11.50;99.90
22633;DHT22;11483;55.828;37.488;2023-05-29T01:37:51;11.60;99.90
22633;DHT22;11483;55.828;37.488;2023-05-29T01:40:17;11.60;99.90
22633;DHT22;11483;55.828;37.488;2023-05-29T01:42:49;11.60;99.90
22633;DHT22;11483;55.828;37.488;2023-05-29T01:45:42;11.70;99.90
22633;DHT22;11483;55.828;37.488;2023-05-29T01:48:29;11.70;99.90
22633;DHT22;11483;55.828;37.488;2023-05-29T01:50:56;11.80;99.90
22633;DHT22;11483;55.828;37.488;2023-05-29T01:53:23;11.80;99.90
22633;DHT22;11483;55.828;37.488;2023-05-29T01:55:50;11.80;99.90
22633;DHT22;11483;55.828;37.488;2023-05-29T01:58:47;11.90;99.90
22633;DHT22;11483;55.828;37.488;2023-05-29T02:01:47;11.90;99.90
22633;DHT22;11483;55.828;37.488;2023-05-29T02:04:13;11.90;99.90
22633;DHT22;11483;55.828;37.488;2023-05-29T02:06:39;11.90;99.90
22633;DHT22;11483;55.828;37.488;2023-05-29T02:09:05;12.00;99.90
22633;DHT22;11483;55.828;37.488;2023-05-29T02:11:32;11.90;99.90
22633;DHT22;11483;55.828;37.488;2023-05-29T02:13:58;11.90;99.90
22633;DHT22;11483;55.828;37.488;2023-05-29T02:16:24;11.90;99.90
22633;DHT22;11483;55.828;37.488;2023-05-29T02:18:49;11.90;99.90
22633;DHT22;11483;55.828;37.488;2023-05-29T02:21:17;12.00;99.90
22633;DHT22;11483;55.828;37.488;2023-05-29T02:23:43;12.00;99.90
22633;DHT22;11483;55.828;37.488;2023-05-29T02:26:09;12.00;99.90
22633;DHT22;11483;55.828;37.488;2023-05-29T02:28:35;12.10;99.90
22633;DHT22;11483;55.828;37.488;2023-05-29T02:31:01;12.20;99.90
22633;DHT22;11483;55.828;37.488;2023-05-29T02:34:00;12.10;99.90
22633;DHT22;11483;55.828;37.488;2023-05-29T02:36:26;12.10;99.90
22633;DHT22;11483;55.828;37.488;2023-05-29T02:38:53;12.00;99.90
22633;DHT22;11483;55.828;37.488;2023-05-29T02:41:19;11.90;99.90
22633;DHT22;11483;55.828;37.488;2023-05-29T02:43:45;11.80;99.90
22633;DHT22;11483;55.828;37.488;2023-05-29T02:46:10;11.80;99.90
22633;DHT22;11483;55.828;37.488;2023-05-29T02:48:36;11.70;99.90
22633;DHT22;11483;55.828;37.488;2023-05-29T02:51:02;11.70;99.90
22633;DHT22;11483;55.828;37.488;2023-05-29T02:53:28;11.60;99.90
22633;DHT22;11483;55.828;37.488;2023-05-29T02:55:54;11.60;99.90
22633;DHT22;11483;55.828;37.488;2023-05-29T02:58:42;11.60;99.90
22633;DHT22;11483;55.828;37.488;2023-05-29T03:01:08;11.60;99.90
22633;DHT22;11483;55.828;37.488;2023-05-29T03:03:34;11.60;99.90
22633;DHT22;11483;55.828;37.488;2023-05-29T03:06:00;11.60;99.90
22633;DHT22;11483;55.828;37.488;2023-05-29T03:08:26;11.60;99.90
22633;DHT22;11483;55.828;37.488;2023-05-29T03:10:54;11.60;99.90
22633;DHT22;11483;55.828;37.488;2023-05-29T03:13:20;11.60;99.90
22633;DHT22;11483;55.828;37.488;2023-05-29T03:15:47;11.60;99.90
22633;DHT22;11483;55.828;37.488;2023-05-29T03:18:13;11.70;99.90
22633;DHT22;11483;55.828;37.488;2023-05-29T03:20:39;11.70;99.90
22633;DHT22;11483;55.828;37.488;2023-05-29T03:26:10;11.80;99.90
22633;DHT22;11483;55.828;37.488;2023-05-29T03:28:36;11.90;99.90
22633;DHT22;11483;55.828;37.488;2023-05-29T03:31:02;11.90;99.90
22633;DHT22;11483;55.828;37.488;2023-05-29T03:33:27;12.00;99.90
22633;DHT22;11483;55.828;37.488;2023-05-29T03:35:53;12.10;99.90
22633;DHT22;11483;55.828;37.488;2023-05-29T03:38:20;12.10;99.90
22633;DHT22;11483;55.828;37.488;2023-05-29T03:40:46;12.20;99.90
22633;DHT22;11483;55.828;37.488;2023-05-29T03:43:12;12.20;99.90
22633;DHT22;11483;55.828;37.488;2023-05-29T03:45:51;12.30;99.90
22633;DHT22;11483;55.828;37.488;2023-05-29T03:48:37;12.40;99.90
22633;DHT22;11483;55.828;37.488;2023-05-29T03:51:03;12.50;99.90
22633;DHT22;11483;55.828;37.488;2023-05-29T03:53:47;12.50;99.90
22633;DHT22;11483;55.828;37.488;2023-05-29T03:56:13;12.60;99.90
22633;DHT22;11483;55.828;37.488;2023-05-29T03:58:39;12.60;99.90
22633;DHT22;11483;55.828;37.488;2023-05-29T04:01:05;12.70;99.90
22633;DHT22;11483;55.828;37.488;2023-05-29T04:03:31;12.80;99.90
22633;DHT22;11483;55.828;37.488;2023-05-29T04:05:57;12.90;99.90
22633;DHT22;11483;55.828;37.488;2023-05-29T04:08:23;13.00;99.90
22633;DHT22;11483;55.828;37.488;2023-05-29T04:10:49;13.10;99.90
22633;DHT22;11483;55.828;37.488;2023-05-29T04:13:19;13.20;99.90
22633;DHT22;11483;55.828;37.488;2023-05-29T04:15:45;13.30;99.90
22633;DHT22;11483;55.828;37.488;2023-05-29T04:18:11;13.40;99.90
22633;DHT22;11483;55.828;37.488;2023-05-29T04:20:37;13.50;99.90
22633;DHT22;11483;55.828;37.488;2023-05-29T04:23:03;13.60;99.90
22633;DHT22;11483;55.828;37.488;2023-05-29T04:25:29;13.70;99.90
22633;DHT22;11483;55.828;37.488;2023-05-29T04:27:55;13.80;99.90
22633;DHT22;11483;55.828;37.488;2023-05-29T04:30:21;13.90;99.90
22633;DHT22;11483;55.828;37.488;2023-05-29T04:32:47;13.90;99.90
22633;DHT22;11483;55.828;37.488;2023-05-29T04:35:13;14.00;99.90
22633;DHT22;11483;55.828;37.488;2023-05-29T04:37:40;14.00;99.90
22633;DHT22;11483;55.828;37.488;2023-05-29T04:40:07;14.10;99.90
22633;DHT22;11483;55.828;37.488;2023-05-29T04:42:37;14.20;99.90
22633;DHT22;11483;55.828;37.488;2023-05-29T04:45:22;14.20;99.90
22633;DHT22;11483;55.828;37.488;2023-05-29T04:47:48;14.30;99.90
22633;DHT22;11483;55.828;37.488;2023-05-29T04:50:16;14.40;99.90
22633;DHT22;11483;55.828;37.488;2023-05-29T04:52:43;14.40;99.90
22633;DHT22;11483;55.828;37.488;2023-05-29T04:55:09;14.50;99.90
22633;DHT22;11483;55.828;37.488;2023-05-29T04:57:38;14.60;99.90
22633;DHT22;11483;55.828;37.488;2023-05-29T05:00:04;14.70;99.90
22633;DHT22;11483;55.828;37.488;2023-05-29T05:02:42;14.70;99.90
22633;DHT22;11483;55.828;37.488;2023-05-29T05:05:09;14.90;99.90
22633;DHT22;11483;55.828;37.488;2023-05-29T05:07:35;14.80;99.90
22633;DHT22;11483;55.828;37.488;2023-05-29T05:10:02;14.80;99.90
22633;DHT22;11483;55.828;37.488;2023-05-29T05:12:28;14.90;99.90
22633;DHT22;11483;55.828;37.488;2023-05-29T05:14:54;15.00;99.90
22633;DHT22;11483;55.828;37.488;2023-05-29T05:17:20;15.10;99.90
22633;DHT22;11483;55.828;37.488;2023-05-29T05:19:46;15.20;99.90
22633;DHT22;11483;55.828;37.488;2023-05-29T05:22:12;15.30;99.90
22633;DHT22;11483;55.828;37.488;2023-05-29T05:24:37;15.30;99.90
22633;DHT22;11483;55.828;37.488;2023-05-29T05:27:04;15.40;99.90
22633;DHT22;11483;55.828;37.488;2023-05-29T05:29:30;15.50;99.90
22633;DHT22;11483;55.828;37.488;2023-05-29T05:31:56;15.60;99.90
22633;DHT22;11483;55.828;37.488;2023-05-29T05:34:22;15.70;99.90
22633;DHT22;11483;55.828;37.488;2023-05-29T05:36:48;15.80;99.90
22633;DHT22;11483;55.828;37.488;2023-05-29T05:39:15;15.80;99.90
22633;DHT22;11483;55.828;37.488;2023-05-29T05:41:40;15.80;99.90
22633;DHT22;11483;55.828;37.488;2023-05-29T05:44:06;15.80;99.90
22633;DHT22;11483;55.828;37.488;2023-05-29T05:46:32;15.80;99.90
22633;DHT22;11483;55.828;37.488;2023-05-29T05:48:58;16.00;99.90
22633;DHT22;11483;55.828;37.488;2023-05-29T05:51:24;16.10;99.90
22633;DHT22;11483;55.828;37.488;2023-05-29T05:53:50;16.10;99.90
22633;DHT22;11483;55.828;37.488;2023-05-29T05:56:16;16.20;99.90
22633;DHT22;11483;55.828;37.488;2023-05-29T05:58:42;16.30;99.90
22633;DHT22;11483;55.828;37.488;2023-05-29T06:01:08;16.40;99.90
22633;DHT22;11483;55.828;37.488;2023-05-29T06:03:34;16.40;99.90
22633;DHT22;11483;55.828;37.488;2023-05-29T06:06:01;16.60;99.90
22633;DHT22;11483;55.828;37.488;2023-05-29T06:08:27;16.60;99.90
22633;DHT22;11483;55.828;37.488;2023-05-29T06:10:52;16.70;99.90
22633;DHT22;11483;55.828;37.488;2023-05-29T06:13:18;16.90;99.90
22633;DHT22;11483;55.828;37.488;2023-05-29T06:15:44;17.10;99.90
22633;DHT22;11483;55.828;37.488;2023-05-29T06:18:10;17.20;99.90
22633;DHT22;11483;55.828;37.488;2023-05-29T06:20:37;17.30;99.90
22633;DHT22;11483;55.828;37.488;2023-05-29T06:23:03;17.30;99.90
22633;DHT22;11483;55.828;37.488;2023-05-29T06:25:30;17.40;99.90
22633;DHT22;11483;55.828;37.488;2023-05-29T06:28:02;17.60;99.90
22633;DHT22;11483;55.828;37.488;2023-05-29T06:30:28;17.50;99.90
22633;DHT22;11483;55.828;37.488;2023-05-29T06:32:54;17.50;99.90
22633;DHT22;11483;55.828;37.488;2023-05-29T06:35:20;17.40;99.90
22633;DHT22;11483;55.828;37.488;2023-05-29T06:37:46;17.40;98.50
22633;DHT22;11483;55.828;37.488;2023-05-29T06:40:13;17.40;99.70
22633;DHT22;11483;55.828;37.488;2023-05-29T06:42:41;17.60;99.80
22633;DHT22;11483;55.828;37.488;2023-05-29T06:45:11;17.60;98.70
22633;DHT22;11483;55.828;37.488;2023-05-29T06:48:07;17.70;98.90
22633;DHT22;11483;55.828;37.488;2023-05-29T06:50:33;17.90;97.40
22633;DHT22;11483;55.828;37.488;2023-05-29T06:53:17;18.00;97.60
22633;DHT22;11483;55.828;37.488;2023-05-29T06:55:42;18.10;95.70
22633;DHT22;11483;55.828;37.488;2023-05-29T06:58:08;18.20;96.10
22633;DHT22;11483;55.828;37.488;2023-05-29T07:03:39;18.30;94.00
22633;DHT22;11483;55.828;37.488;2023-05-29T07:06:05;18.20;94.80
22633;DHT22;11483;55.828;37.488;2023-05-29T07:08:31;18.30;95.40
22633;DHT22;11483;55.828;37.488;2023-05-29T07:10:57;18.40;94.00
22633;DHT22;11483;55.828;37.488;2023-05-29T07:13:25;18.50;93.20
22633;DHT22;11483;55.828;37.488;2023-05-29T07:15:52;18.50;92.00
22633;DHT22;11483;55.828;37.488;2023-05-29T07:18:18;18.60;91.90
22633;DHT22;11483;55.828;37.488;2023-05-29T07:20:44;18.70;91.20
22633;DHT22;11483;55.828;37.488;2023-05-29T07:23:10;18.80;90.60
22633;DHT22;11483;55.828;37.488;2023-05-29T07:25:36;18.80;91.00
22633;DHT22;11483;55.828;37.488;2023-05-29T07:28:01;18.80;90.50
22633;DHT22;11483;55.828;37.488;2023-05-29T07:30:27;18.80;90.30
22633;DHT22;11483;55.828;37.488;2023-05-29T07:32:53;18.80;89.40
22633;DHT22;11483;55.828;37.488;2023-05-29T07:35:19;18.70;88.50
22633;DHT22;11483;55.828;37.488;2023-05-29T07:37:46;18.60;88.80
22633;DHT22;11483;55.828;37.488;2023-05-29T07:40:13;18.90;89.90
22633;DHT22;11483;55.828;37.488;2023-05-29T07:42:39;19.10;87.40
22633;DHT22;11483;55.828;37.488;2023-05-29T07:45:05;19.20;87.80
22633;DHT22;11483;55.828;37.488;2023-05-29T07:47:31;19.50;88.60
22633;DHT22;11483;55.828;37.488;2023-05-29T07:49:57;19.80;88.20
22633;DHT22;11483;55.828;37.488;2023-05-29T07:52:24;20.00;87.30
22633;DHT22;11483;55.828;37.488;2023-05-29T07:54:50;20.10;85.30
22633;DHT22;11483;55.828;37.488;2023-05-29T07:57:16;20.00;84.10
22633;DHT22;11483;55.828;37.488;2023-05-29T07:59:42;19.80;83.20
22633;DHT22;11483;55.828;37.488;2023-05-29T08:02:08;19.70;82.60
22633;DHT22;11483;55.828;37.488;2023-05-29T08:04:34;19.90;84.00
22633;DHT22;11483;55.828;37.488;2023-05-29T08:07:02;20.10;80.40
22633;DHT22;11483;55.828;37.488;2023-05-29T08:09:31;19.90;78.60
22633;DHT22;11483;55.828;37.488;2023-05-29T08:11:57;19.80;81.20
22633;DHT22;11483;55.828;37.488;2023-05-29T08:14:25;19.80;78.60
22633;DHT22;11483;55.828;37.488;2023-05-29T08:16:51;19.70;78.20
22633;DHT22;11483;55.828;37.488;2023-05-29T08:19:17;19.60;79.70
22633;DHT22;11483;55.828;37.488;2023-05-29T08:21:43;19.80;77.80
22633;DHT22;11483;55.828;37.488;2023-05-29T08:24:09;19.80;76.30
22633;DHT22;11483;55.828;37.488;2023-05-29T08:26:35;19.90;76.80
22633;DHT22;11483;55.828;37.488;2023-05-29T08:29:01;19.90;76.50
22633;DHT22;11483;55.828;37.488;2023-05-29T08:31:27;20.10;77.30
22633;DHT22;11483;55.828;37.488;2023-05-29T08:33:53;20.20;75.00
22633;DHT22;11483;55.828;37.488;2023-05-29T08:36:19;20.30;76.20
22633;DHT22;11483;55.828;37.488;2023-05-29T08:38:50;20.50;73.50
22633;DHT22;11483;55.828;37.488;2023-05-29T08:44:18;20.70;75.90
22633;DHT22;11483;55.828;37.488;2023-05-29T08:46:47;21.10;74.60
22633;DHT22;11483;55.828;37.488;2023-05-29T08:49:16;21.70;73.70
22633;DHT22;11483;55.828;37.488;2023-05-29T08:51:47;22.90;72.50
22633;DHT22;11483;55.828;37.488;2023-05-29T08:54:16;24.30;69.00
22633;DHT22;11483;55.828;37.488;2023-05-29T08:56:42;26.00;67.50
22633;DHT22;11483;55.828;37.488;2023-05-29T08:59:08;27.60;64.40
22633;DHT22;11483;55.828;37.488;2023-05-29T09:01:34;27.60;61.10
22633;DHT22;11483;55.828;37.488;2023-05-29T09:04:00;28.10;58.70
22633;DHT22;11483;55.828;37.488;2023-05-29T09:06:27;29.40;56.60
22633;DHT22;11483;55.828;37.488;2023-05-29T09:08:54;30.30;54.20
22633;DHT22;11483;55.828;37.488;2023-05-29T09:11:20;30.80;53.40
22633;DHT22;11483;55.828;37.488;2023-05-29T09:13:47;32.60;51.50
22633;DHT22;11483;55.828;37.488;2023-05-29T09:16:13;33.90;48.20
22633;DHT22;11483;55.828;37.488;2023-05-29T09:18:41;34.10;45.40
22633;DHT22;11483;55.828;37.488;2023-05-29T09:21:26;33.80;44.90
22633;DHT22;11483;55.828;37.488;2023-05-29T09:23:54;33.60;43.70
22633;DHT22;11483;55.828;37.488;2023-05-29T09:26:21;33.10;42.40
22633;DHT22;11483;55.828;37.488;2023-05-29T09:28:49;32.80;42.70
22633;DHT22;11483;55.828;37.488;2023-05-29T09:31:15;32.80;42.70
22633;DHT22;11483;55.828;37.488;2023-05-29T09:33:49;32.20;42.60
22633;DHT22;11483;55.828;37.488;2023-05-29T09:36:22;32.00;42.10
22633;DHT22;11483;55.828;37.488;2023-05-29T09:38:48;32.50;42.10
22633;DHT22;11483;55.828;37.488;2023-05-29T09:41:20;33.10;42.30
22633;DHT22;11483;55.828;37.488;2023-05-29T09:43:49;33.00;41.90
22633;DHT22;11483;55.828;37.488;2023-05-29T09:46:16;33.00;41.70
22633;DHT22;11483;55.828;37.488;2023-05-29T09:48:46;33.30;41.10
22633;DHT22;11483;55.828;37.488;2023-05-29T09:51:22;33.40;40.80
22633;DHT22;11483;55.828;37.488;2023-05-29T09:53:49;33.80;40.70
22633;DHT22;11483;55.828;37.488;2023-05-29T09:56:16;33.30;39.50
22633;DHT22;11483;55.828;37.488;2023-05-29T09:58:44;32.20;39.30
22633;DHT22;11483;55.828;37.488;2023-05-29T10:01:13;32.20;39.60
22633;DHT22;11483;55.828;37.488;2023-05-29T10:03:42;33.20;39.40
22633;DHT22;11483;55.828;37.488;2023-05-29T10:06:12;34.00;39.00
22633;DHT22;11483;55.828;37.488;2023-05-29T10:08:45;33.90;38.60
22633;DHT22;11483;55.828;37.488;2023-05-29T10:11:19;33.00;38.90
22633;DHT22;11483;55.828;37.488;2023-05-29T10:13:52;32.80;39.00
22633;DHT22;11483;55.828;37.488;2023-05-29T10:16:22;33.20;39.20
22633;DHT22;11483;55.828;37.488;2023-05-29T10:18:56;34.10;37.80
22633;DHT22;11483;55.828;37.488;2023-05-29T10:21:26;34.10;38.00
22633;DHT22;11483;55.828;37.488;2023-05-29T10:23:52;34.10;38.20
22633;DHT22;11483;55.828;37.488;2023-05-29T10:26:27;33.60;38.60
22633;DHT22;11483;55.828;37.488;2023-05-29T10:29:19;33.50;39.20
22633;DHT22;11483;55.828;37.488;2023-05-29T10:35:00;32.60;40.40
22633;DHT22;11483;55.828;37.488;2023-05-29T10:40:12;32.30;40.80
22633;DHT22;11483;55.828;37.488;2023-05-29T10:45:04;33.40;39.80
22633;DHT22;11483;55.828;37.488;2023-05-29T10:47:31;33.80;39.20
22633;DHT22;11483;55.828;37.488;2023-05-29T10:50:00;34.20;38.50
22633;DHT22;11483;55.828;37.488;2023-05-29T10:52:33;35.10;37.50
22633;DHT22;11483;55.828;37.488;2023-05-29T10:55:00;34.00;37.00
22633;DHT22;11483;55.828;37.488;2023-05-29T10:57:29;34.60;37.50
22633;DHT22;11483;55.828;37.488;2023-05-29T11:00:03;34.70;37.30
22633;DHT22;11483;55.828;37.488;2023-05-29T11:02:36;35.20;37.00
22633;DHT22;11483;55.828;37.488;2023-05-29T11:05:23;35.10;37.30
22633;DHT22;11483;55.828;37.488;2023-05-29T11:07:58;35.60;36.40
22633;DHT22;11483;55.828;37.488;2023-05-29T11:13:27;34.40;36.20
22633;DHT22;11483;55.828;37.488;2023-05-29T11:16:13;34.80;35.90
22633;DHT22;11483;55.828;37.488;2023-05-29T11:18:47;35.40;36.20
22633;DHT22;11483;55.828;37.488;2023-05-29T11:23:57;34.60;36.20
22633;DHT22;11483;55.828;37.488;2023-05-29T11:26:27;35.00;36.20
22633;DHT22;11483;55.828;37.488;2023-05-29T11:28:53;35.10;36.60
22633;DHT22;11483;55.828;37.488;2023-05-29T11:31:20;35.20;36.00
22633;DHT22;11483;55.828;37.488;2023-05-29T11:33:50;35.50;35.50
22633;DHT22;11483;55.828;37.488;2023-05-29T11:36:18;34.90;35.30
22633;DHT22;11483;55.828;37.488;2023-05-29T11:38:45;35.20;35.90
22633;DHT22;11483;55.828;37.488;2023-05-29T11:41:11;35.10;36.40
22633;DHT22;11483;55.828;37.488;2023-05-29T11:43:37;35.10;35.80
22633;DHT22;11483;55.828;37.488;2023-05-29T11:46:17;34.50;37.00
22633;DHT22;11483;55.828;37.488;2023-05-29T11:48:48;34.70;36.70
22633;DHT22;11483;55.828;37.488;2023-05-29T11:51:14;35.10;36.20
22633;DHT22;11483;55.828;37.488;2023-05-29T11:53:45;35.60;36.20
22633;DHT22;11483;55.828;37.488;2023-05-29T11:56:12;35.40;35.10
22633;DHT22;11483;55.828;37.488;2023-05-29T11:58:39;36.30;34.90
22633;DHT22;11483;55.828;37.488;2023-05-29T12:01:06;36.00;34.80
22633;DHT22;11483;55.828;37.488;2023-05-29T12:03:39;35.40;35.30
22633;DHT22;11483;55.828;37.488;2023-05-29T12:06:06;34.70;35.20
22633;DHT22;11483;55.828;37.488;2023-05-29T12:08:32;33.90;35.80
22633;DHT22;11483;55.828;37.488;2023-05-29T12:10:58;33.00;36.50
22633;DHT22;11483;55.828;37.488;2023-05-29T12:13:24;32.40;37.10
22633;DHT22;11483;55.828;37.488;2023-05-29T12:15:53;31.80;36.90
22633;DHT22;11483;55.828;37.488;2023-05-29T12:18:20;32.50;37.50
22633;DHT22;11483;55.828;37.488;2023-05-29T12:20:46;33.10;36.70
22633;DHT22;11483;55.828;37.488;2023-05-29T12:23:12;33.10;36.60
22633;DHT22;11483;55.828;37.488;2023-05-29T12:25:38;32.90;37.50
22633;DHT22;11483;55.828;37.488;2023-05-29T12:28:05;33.60;36.70
22633;DHT22;11483;55.828;37.488;2023-05-29T12:30:36;34.50;36.10
22633;DHT22;11483;55.828;37.488;2023-05-29T12:33:02;34.80;35.50
22633;DHT22;11483;55.828;37.488;2023-05-29T12:35:29;35.00;35.00
22633;DHT22;11483;55.828;37.488;2023-05-29T12:38:00;34.70;35.00
22633;DHT22;11483;55.828;37.488;2023-05-29T12:40:33;35.20;35.30
22633;DHT22;11483;55.828;37.488;2023-05-29T12:43:05;35.60;34.80
22633;DHT22;11483;55.828;37.488;2023-05-29T12:45:33;35.60;35.30
22633;DHT22;11483;55.828;37.488;2023-05-29T12:48:06;36.00;34.50
22633;DHT22;11483;55.828;37.488;2023-05-29T12:50:38;36.90;33.90
22633;DHT22;11483;55.828;37.488;2023-05-29T12:53:12;36.50;33.90
22633;DHT22;11483;55.828;37.488;2023-05-29T12:55:41;36.10;34.50
22633;DHT22;11483;55.828;37.488;2023-05-29T12:58:11;36.00;35.00
22633;DHT22;11483;55.828;37.488;2023-05-29T13:00:42;35.10;34.60
22633;DHT22;11483;55.828;37.488;2023-05-29T13:03:08;34.90;35.10
22633;DHT22;11483;55.828;37.488;2023-05-29T13:05:36;33.90;36.10
22633;DHT22;11483;55.828;37.488;2023-05-29T13:08:02;34.30;36.00
22633;DHT22;11483;55.828;37.488;2023-05-29T13:10:30;34.20;35.70
22633;DHT22;11483;55.828;37.488;2023-05-29T13:12:56;34.50;35.80
22633;DHT22;11483;55.828;37.488;2023-05-29T13:15:25;34.50;35.50
22633;DHT22;11483;55.828;37.488;2023-05-29T13:17:52;34.40;35.50
22633;DHT22;11483;55.828;37.488;2023-05-29T13:20:19;33.60;36.10
22633;DHT22;11483;55.828;37.488;2023-05-29T13:22:46;33.00;36.40
22633;DHT22;11483;55.828;37.488;2023-05-29T13:25:14;33.20;37.40
22633;DHT22;11483;55.828;37.488;2023-05-29T13:27:43;34.00;37.10
22633;DHT22;11483;55.828;37.488;2023-05-29T13:30:10;33.80;36.70
22633;DHT22;11483;55.828;37.488;2023-05-29T13:32:36;33.50;36.30
22633;DHT22;11483;55.828;37.488;2023-05-29T13:35:02;33.90;36.70
22633;DHT22;11483;55.828;37.488;2023-05-29T13:37:28;33.70;36.10
22633;DHT22;11483;55.828;37.488;2023-05-29T13:39:55;33.20;36.10
22633;DHT22;11483;55.828;37.488;2023-05-29T13:42:21;33.00;37.00
22633;DHT22;11483;55.828;37.488;2023-05-29T13:44:48;32.70;37.20
22633;DHT22;11483;55.828;37.488;2023-05-29T13:47:14;32.90;37.40
22633;DHT22;11483;55.828;37.488;2023-05-29T13:49:40;32.80;37.60
22633;DHT22;11483;55.828;37.488;2023-05-29T13:52:06;33.20;37.30
22633;DHT22;11483;55.828;37.488;2023-05-29T13:54:32;33.30;37.00
22633;DHT22;11483;55.828;37.488;2023-05-29T13:57:02;33.40;37.60
22633;DHT22;11483;55.828;37.488;2023-05-29T13:59:29;33.70;37.20
22633;DHT22;11483;55.828;37.488;2023-05-29T14:01:55;34.10;37.30
22633;DHT22;11483;55.828;37.488;2023-05-29T14:04:21;34.50;37.10
22633;DHT22;11483;55.828;37.488;2023-05-29T14:06:47;34.60;36.00
22633;DHT22;11483;55.828;37.488;2023-05-29T14:09:13;34.60;37.50
22633;DHT22;11483;55.828;37.488;2023-05-29T14:11:39;34.80;36.00
22633;DHT22;11483;55.828;37.488;2023-05-29T14:14:06;34.90;36.10
22633;DHT22;11483;55.828;37.488;2023-05-29T14:16:33;34.70;35.70
22633;DHT22;11483;55.828;37.488;2023-05-29T14:19:00;33.60;36.30
22633;DHT22;11483;55.828;37.488;2023-05-29T14:21:26;33.00;36.40
22633;DHT22;11483;55.828;37.488;2023-05-29T14:23:52;32.90;36.80
22633;DHT22;11483;55.828;37.488;2023-05-29T14:26:17;32.30;37.60
22633;DHT22;11483;55.828;37.488;2023-05-29T14:28:44;32.60;37.70
22633;DHT22;11483;55.828;37.488;2023-05-29T14:31:10;32.70;37.10
22633;DHT22;11483;55.828;37.488;2023-05-29T14:33:36;32.50;36.80
22633;DHT22;11483;55.828;37.488;2023-05-29T14:36:04;32.20;37.40
22633;DHT22;11483;55.828;37.488;2023-05-29T14:38:30;32.50;37.60
22633;DHT22;11483;55.828;37.488;2023-05-29T14:40:56;32.90;36.90
22633;DHT22;11483;55.828;37.488;2023-05-29T14:43:22;32.50;37.80
22633;DHT22;11483;55.828;37.488;2023-05-29T14:45:48;33.20;37.50
22633;DHT22;11483;55.828;37.488;2023-05-29T14:48:13;33.60;37.10
22633;DHT22;11483;55.828;37.488;2023-05-29T14:50:42;33.80;37.50
22633;DHT22;11483;55.828;37.488;2023-05-29T14:53:07;34.30;37.20
22633;DHT22;11483;55.828;37.488;2023-05-29T14:55:33;33.40;37.00
22633;DHT22;11483;55.828;37.488;2023-05-29T14:58:06;33.20;37.40
22633;DHT22;11483;55.828;37.488;2023-05-29T15:00:32;32.80;37.40
22633;DHT22;11483;55.828;37.488;2023-05-29T15:02:58;32.70;37.60
22633;DHT22;11483;55.828;37.488;2023-05-29T15:05:28;32.70;37.70
22633;DHT22;11483;55.828;37.488;2023-05-29T15:07:55;32.30;37.90
22633;DHT22;11483;55.828;37.488;2023-05-29T15:10:25;32.50;38.10
22633;DHT22;11483;55.828;37.488;2023-05-29T15:12:52;32.70;37.70
22633;DHT22;11483;55.828;37.488;2023-05-29T15:15:25;32.60;38.00
22633;DHT22;11483;55.828;37.488;2023-05-29T15:17:52;32.70;37.90
22633;DHT22;11483;55.828;37.488;2023-05-29T15:20:25;32.30;38.70
22633;DHT22;11483;55.828;37.488;2023-05-29T15:22:52;32.10;39.40
22633;DHT22;11483;55.828;37.488;2023-05-29T15:25:20;32.30;38.50
22633;DHT22;11483;55.828;37.488;2023-05-29T15:27:47;32.30;38.40
22633;DHT22;11483;55.828;37.488;2023-05-29T15:30:16;32.70;38.10
22633;DHT22;11483;55.828;37.488;2023-05-29T15:32:43;33.00;38.10
22633;DHT22;11483;55.828;37.488;2023-05-29T15:35:14;33.00;38.00
22633;DHT22;11483;55.828;37.488;2023-05-29T15:37:41;32.90;37.80
22633;DHT22;11483;55.828;37.488;2023-05-29T15:40:08;32.50;37.90
22633;DHT22;11483;55.828;37.488;2023-05-29T15:42:37;32.50;37.90
22633;DHT22;11483;55.828;37.488;2023-05-29T15:45:04;32.30;37.80
22633;DHT22;11483;55.828;37.488;2023-05-29T15:47:30;32.10;38.20
22633;DHT22;11483;55.828;37.488;2023-05-29T15:49:57;32.30;38.20
22633;DHT22;11483;55.828;37.488;2023-05-29T15:52:26;32.20;38.10